Ansley, NE

10:02 AM CDT on July 22, 2014 (GMT -0500)
South of Town (KNEBROKE3) Elev 2523 ft | 41.38 °N, 99.64 °W | Change Station

Current weather conditions updated 28 seconds ago

Clear
Clear
79.7 °F
Feels Like 81 °F
N
9.0
Wind Variable Wind from NE
Gusts 12.0 mph

Today is forecast to be Cooler than yesterday.

Today
High -- | Low -- °F
--% Chance of Precip.
Yesterday
High -- | Low -- °F
Precip. -- in
6:23 AM 9:03 PM
Waning Crescent, 17% visible
Pressure 30.03 in
Visibility 10.0 miles
Clouds Clear
Heat Index 81 °F
Dew Point 60 °F
Humidity 52%
Rainfall 0.00 in
Snow Depth Not available.
UV 4 out of 12
Pollen 6.50 out of 12
Air Quality Not available.
Flu Activity Sporadic
METAR KBBW 221453Z AUTO 08012G17KT 10SM CLR 27/16 A3011 RMK AO2 SLP167 T02720161 53001

More Conditions Fewer Conditions

Pressure 30.03 in
Visibility 10.0 miles
Clouds Clear
Heat Index 81 °F
Dew Point 60 °F
Humidity 52%
Rainfall 0.00 in
Snow Depth Not available.
UV 4 out of 12
Pollen 6.50 out of 12
Air Quality Not available.
Flu Activity Sporadic
METAR KBBW 221453Z AUTO 08012G17KT 10SM CLR 27/16 A3011 RMK AO2 SLP167 T02720161 53001

More Conditions Fewer Conditions

10-Day Weather Forecast

LIGHTNING

Thunderstorms are forecast for your area. Cloud conditions might be right for producing strikes in the next few days, though lightning itself cannot be forecasted.

Lightning is a visible electrical discharge produced by a thunderstorm, based on the build up of oppositely charged particles within a cloud and from cloud to ground.

Know how to stay safe in a lightning storm.

Check out these Lightning WunderPhotos!

Almanac

Astronomy

Jul. 22, 2014 Rise Set
Actual Time 6:23 AM CDT 9:03 PM CDT
Civil Twilight 5:51 AM CDT 9:35 PM CDT
Nautical Twilight 5:10 AM CDT 10:16 PM CDT
Astronomical Twilight 4:24 AM CDT 11:01 PM CDT
Moon 2:57 AM CDT 5:42 PM CDT
Length of Visible Light 15h 44m
Length of Day
14h 40m
Tomorrow will be 1m 45s shorter.
Waning Crescent, 17% of the Moon is Illuminated
Today
Waning Crescent
Jul 26
New
Aug 3
First Quarter
Aug 10
Full
Aug 17
Last Quarter

Today's Extremes

State Highs State Lows

Community

WunderPhotos

Upload Photos

1,736,257 photos uploaded!

Nearby

Snow Depth

Station Depth Elevation
No new snow has been reported.

Earthquake Activity

City Distance Mag. Time & Date
No recent earthquake activity has been reported nearby.
Minimum magnitude displayed is 2.5.

Coastal Water Temperatures

Place Temperature
No Stations Reporting

Nearby Weather Stations

Station Location Temp. Heat Index Dew Point Humidity Wind Precip. Elev Updated Type
South of Town, Broken Bow, NE 79.7 °F 81 °F 60 °F 52% NE  at  9.0 mph 0.00 in / hr 2523 ft 10:02 AM CDT Normal
Central, Loup City, NE 79.9 °F 82 °F 65 °F 61% NNE  at  1.7 mph - / hr 2090 ft 9:50 AM CDT Normal
Sargent, Sargent, NE 81.8 °F 83 °F 63 °F 53% ENE  at  3.0 mph 0.00 in / hr 2314 ft 10:02 AM CDT Normal

Show More Stations Show Fewer Stations